sensor_id;sensor_type;location;lat;lon;timestamp;temperature;humidity
40434;DHT22;26146;51.114;5.654;2023-02-28T00:02:37;1.40;99.90
40434;DHT22;26146;51.114;5.654;2023-02-28T00:06:39;1.60;99.90
40434;DHT22;26146;51.114;5.654;2023-02-28T00:10:43;1.40;99.90
40434;DHT22;26146;51.114;5.654;2023-02-28T00:14:44;1.50;99.90
40434;DHT22;26146;51.114;5.654;2023-02-28T00:18:45;1.50;99.90
40434;DHT22;26146;51.114;5.654;2023-02-28T00:22:49;1.50;99.90
40434;DHT22;26146;51.114;5.654;2023-02-28T00:26:50;1.40;99.90
40434;DHT22;26146;51.114;5.654;2023-02-28T00:30:51;1.40;99.90
40434;DHT22;26146;51.114;5.654;2023-02-28T00:34:52;1.20;99.90
40434;DHT22;26146;51.114;5.654;2023-02-28T00:38:53;1.10;99.90
40434;DHT22;26146;51.114;5.654;2023-02-28T00:42:54;1.20;99.90
40434;DHT22;26146;51.114;5.654;2023-02-28T00:46:56;1.20;99.90
40434;DHT22;26146;51.114;5.654;2023-02-28T00:50:57;1.30;99.90
40434;DHT22;26146;51.114;5.654;2023-02-28T00:55:00;1.30;99.90
40434;DHT22;26146;51.114;5.654;2023-02-28T00:59:01;1.40;99.90
40434;DHT22;26146;51.114;5.654;2023-02-28T01:03:02;1.30;99.90
40434;DHT22;26146;51.114;5.654;2023-02-28T01:07:03;1.20;99.90
40434;DHT22;26146;51.114;5.654;2023-02-28T01:11:11;1.10;99.90
40434;DHT22;26146;51.114;5.654;2023-02-28T01:15:12;1.20;99.90
40434;DHT22;26146;51.114;5.654;2023-02-28T01:19:13;1.00;99.90
40434;DHT22;26146;51.114;5.654;2023-02-28T01:23:14;0.90;99.90
40434;DHT22;26146;51.114;5.654;2023-02-28T01:27:15;1.00;99.90
40434;DHT22;26146;51.114;5.654;2023-02-28T01:31:17;0.90;99.90
40434;DHT22;26146;51.114;5.654;2023-02-28T01:35:19;0.90;99.90
40434;DHT22;26146;51.114;5.654;2023-02-28T01:39:20;0.80;99.90
40434;DHT22;26146;51.114;5.654;2023-02-28T01:43:26;0.80;99.90
40434;DHT22;26146;51.114;5.654;2023-02-28T01:47:31;0.70;99.90
40434;DHT22;26146;51.114;5.654;2023-02-28T01:51:41;0.70;99.90
40434;DHT22;26146;51.114;5.654;2023-02-28T01:55:49;0.70;99.90
40434;DHT22;26146;51.114;5.654;2023-02-28T01:59:55;0.70;99.90
40434;DHT22;26146;51.114;5.654;2023-02-28T02:04:00;0.50;99.90
40434;DHT22;26146;51.114;5.654;2023-02-28T02:08:05;0.50;99.90
40434;DHT22;26146;51.114;5.654;2023-02-28T02:16:43;0.50;99.90
40434;DHT22;26146;51.114;5.654;2023-02-28T02:37:58;0.40;99.90
40434;DHT22;26146;51.114;5.654;2023-02-28T02:42:05;0.30;99.90
40434;DHT22;26146;51.114;5.654;2023-02-28T02:46:16;0.30;99.90
40434;DHT22;26146;51.114;5.654;2023-02-28T02:50:25;0.30;99.90
40434;DHT22;26146;51.114;5.654;2023-02-28T02:54:38;0.20;99.90
40434;DHT22;26146;51.114;5.654;2023-02-28T02:58:42;0.10;99.90
40434;DHT22;26146;51.114;5.654;2023-02-28T03:02:45;0.00;99.90
40434;DHT22;26146;51.114;5.654;2023-02-28T03:06:48;-0.20;99.90
40434;DHT22;26146;51.114;5.654;2023-02-28T03:10:55;-0.20;99.90
40434;DHT22;26146;51.114;5.654;2023-02-28T03:23:42;0.00;99.90
40434;DHT22;26146;51.114;5.654;2023-02-28T03:28:49;0.00;99.90
40434;DHT22;26146;51.114;5.654;2023-02-28T03:32:35;0.20;99.90
40434;DHT22;26146;51.114;5.654;2023-02-28T03:36:39;0.30;99.90
40434;DHT22;26146;51.114;5.654;2023-02-28T03:40:50;0.40;99.90
40434;DHT22;26146;51.114;5.654;2023-02-28T03:45:04;0.30;99.90
40434;DHT22;26146;51.114;5.654;2023-02-28T03:49:22;0.40;99.90
40434;DHT22;26146;51.114;5.654;2023-02-28T03:53:33;0.30;99.90
40434;DHT22;26146;51.114;5.654;2023-02-28T03:57:53;0.30;99.90
40434;DHT22;26146;51.114;5.654;2023-02-28T04:01:57;0.30;99.90
40434;DHT22;26146;51.114;5.654;2023-02-28T04:06:02;0.30;99.90
40434;DHT22;26146;51.114;5.654;2023-02-28T04:10:06;0.20;99.90
40434;DHT22;26146;51.114;5.654;2023-02-28T04:14:09;0.20;99.90
40434;DHT22;26146;51.114;5.654;2023-02-28T04:18:10;0.10;99.90
40434;DHT22;26146;51.114;5.654;2023-02-28T04:22:11;0.10;99.90
40434;DHT22;26146;51.114;5.654;2023-02-28T04:26:11;0.20;99.90
40434;DHT22;26146;51.114;5.654;2023-02-28T04:30:13;0.00;99.90
40434;DHT22;26146;51.114;5.654;2023-02-28T04:34:16;0.00;99.90
40434;DHT22;26146;51.114;5.654;2023-02-28T04:38:20;0.00;99.90
40434;DHT22;26146;51.114;5.654;2023-02-28T04:42:21;0.00;99.90
40434;DHT22;26146;51.114;5.654;2023-02-28T04:46:25;-0.10;99.90
40434;DHT22;26146;51.114;5.654;2023-02-28T04:50:28;-0.30;99.90
40434;DHT22;26146;51.114;5.654;2023-02-28T04:54:31;-0.30;99.90
40434;DHT22;26146;51.114;5.654;2023-02-28T04:58:33;-0.40;99.90
40434;DHT22;26146;51.114;5.654;2023-02-28T05:02:34;-0.50;99.90
40434;DHT22;26146;51.114;5.654;2023-02-28T05:06:38;-0.40;99.90
40434;DHT22;26146;51.114;5.654;2023-02-28T05:10:39;-0.40;99.90
40434;DHT22;26146;51.114;5.654;2023-02-28T05:14:40;-0.40;99.90
40434;DHT22;26146;51.114;5.654;2023-02-28T05:18:41;-0.50;99.90
40434;DHT22;26146;51.114;5.654;2023-02-28T05:22:42;-0.60;99.90
40434;DHT22;26146;51.114;5.654;2023-02-28T05:26:44;-0.70;99.90
40434;DHT22;26146;51.114;5.654;2023-02-28T05:30:45;-0.80;99.90
40434;DHT22;26146;51.114;5.654;2023-02-28T05:34:46;-0.90;99.90
40434;DHT22;26146;51.114;5.654;2023-02-28T05:38:47;-0.90;99.90
40434;DHT22;26146;51.114;5.654;2023-02-28T05:42:50;-0.90;99.90
40434;DHT22;26146;51.114;5.654;2023-02-28T05:46:51;-0.70;99.90
40434;DHT22;26146;51.114;5.654;2023-02-28T05:50:52;-0.70;99.90
40434;DHT22;26146;51.114;5.654;2023-02-28T05:54:53;-0.70;99.90
40434;DHT22;26146;51.114;5.654;2023-02-28T05:58:54;-0.50;99.90
40434;DHT22;26146;51.114;5.654;2023-02-28T06:02:55;-0.60;99.90
40434;DHT22;26146;51.114;5.654;2023-02-28T06:07:39;-0.50;99.90
40434;DHT22;26146;51.114;5.654;2023-02-28T06:11:43;-0.50;99.90
40434;DHT22;26146;51.114;5.654;2023-02-28T06:15:44;-0.60;99.90
40434;DHT22;26146;51.114;5.654;2023-02-28T06:19:45;-0.60;99.90
40434;DHT22;26146;51.114;5.654;2023-02-28T06:23:46;-0.70;99.90
40434;DHT22;26146;51.114;5.654;2023-02-28T06:27:47;-0.60;99.90
40434;DHT22;26146;51.114;5.654;2023-02-28T06:31:49;-0.40;99.90
40434;DHT22;26146;51.114;5.654;2023-02-28T06:35:50;-0.60;99.90
40434;DHT22;26146;51.114;5.654;2023-02-28T06:39:52;-0.50;99.90
40434;DHT22;26146;51.114;5.654;2023-02-28T06:43:53;-0.50;99.90
40434;DHT22;26146;51.114;5.654;2023-02-28T06:47:54;-0.50;99.90
40434;DHT22;26146;51.114;5.654;2023-02-28T06:51:55;-0.50;99.90
40434;DHT22;26146;51.114;5.654;2023-02-28T06:55:56;-0.50;99.90
40434;DHT22;26146;51.114;5.654;2023-02-28T07:00:02;-0.50;99.90
40434;DHT22;26146;51.114;5.654;2023-02-28T07:04:04;-0.40;99.90
40434;DHT22;26146;51.114;5.654;2023-02-28T07:08:07;-0.40;99.90
40434;DHT22;26146;51.114;5.654;2023-02-28T07:12:08;-0.40;99.90
40434;DHT22;26146;51.114;5.654;2023-02-28T07:16:12;-0.40;99.90
40434;DHT22;26146;51.114;5.654;2023-02-28T07:20:13;-0.40;99.90
40434;DHT22;26146;51.114;5.654;2023-02-28T07:24:14;-0.10;99.90
40434;DHT22;26146;51.114;5.654;2023-02-28T07:28:16;0.00;99.90
40434;DHT22;26146;51.114;5.654;2023-02-28T07:32:18;0.10;99.90
40434;DHT22;26146;51.114;5.654;2023-02-28T07:36:21;0.00;99.90
40434;DHT22;26146;51.114;5.654;2023-02-28T07:40:25;0.10;99.90
40434;DHT22;26146;51.114;5.654;2023-02-28T07:44:28;0.20;99.90
40434;DHT22;26146;51.114;5.654;2023-02-28T07:48:29;0.30;99.90
40434;DHT22;26146;51.114;5.654;2023-02-28T07:52:30;0.50;99.90
40434;DHT22;26146;51.114;5.654;2023-02-28T07:56:31;0.50;99.90
40434;DHT22;26146;51.114;5.654;2023-02-28T08:00:32;0.50;99.90
40434;DHT22;26146;51.114;5.654;2023-02-28T08:04:33;0.60;99.90
40434;DHT22;26146;51.114;5.654;2023-02-28T08:08:34;0.70;99.90
40434;DHT22;26146;51.114;5.654;2023-02-28T08:12:36;1.00;99.90
40434;DHT22;26146;51.114;5.654;2023-02-28T08:16:37;0.90;99.90
40434;DHT22;26146;51.114;5.654;2023-02-28T08:20:40;1.00;99.90
40434;DHT22;26146;51.114;5.654;2023-02-28T08:24:41;1.20;99.90
40434;DHT22;26146;51.114;5.654;2023-02-28T08:28:44;1.20;99.90
40434;DHT22;26146;51.114;5.654;2023-02-28T08:32:45;1.40;99.90
40434;DHT22;26146;51.114;5.654;2023-02-28T08:36:46;1.50;99.90
40434;DHT22;26146;51.114;5.654;2023-02-28T08:40:47;1.70;99.90
40434;DHT22;26146;51.114;5.654;2023-02-28T08:44:48;1.80;99.90
40434;DHT22;26146;51.114;5.654;2023-02-28T08:48:52;1.80;99.90
40434;DHT22;26146;51.114;5.654;2023-02-28T08:52:54;1.90;99.90
40434;DHT22;26146;51.114;5.654;2023-02-28T08:56:55;2.10;99.90
40434;DHT22;26146;51.114;5.654;2023-02-28T09:00:56;2.20;99.90
40434;DHT22;26146;51.114;5.654;2023-02-28T09:04:57;2.30;99.90
40434;DHT22;26146;51.114;5.654;2023-02-28T09:08:59;2.40;99.90
40434;DHT22;26146;51.114;5.654;2023-02-28T09:13:01;2.40;99.90
40434;DHT22;26146;51.114;5.654;2023-02-28T09:17:02;2.60;99.90
40434;DHT22;26146;51.114;5.654;2023-02-28T09:21:05;2.70;99.90
40434;DHT22;26146;51.114;5.654;2023-02-28T09:25:07;2.90;99.30
40434;DHT22;26146;51.114;5.654;2023-02-28T09:29:10;3.10;99.10
40434;DHT22;26146;51.114;5.654;2023-02-28T09:33:12;3.20;98.10
40434;DHT22;26146;51.114;5.654;2023-02-28T09:37:13;3.30;96.10
40434;DHT22;26146;51.114;5.654;2023-02-28T09:41:20;3.40;95.20
40434;DHT22;26146;51.114;5.654;2023-02-28T09:45:30;3.50;95.20
40434;DHT22;26146;51.114;5.654;2023-02-28T09:49:39;3.60;93.70
40434;DHT22;26146;51.114;5.654;2023-02-28T09:53:41;3.60;92.20
40434;DHT22;26146;51.114;5.654;2023-02-28T09:57:42;3.50;92.20
40434;DHT22;26146;51.114;5.654;2023-02-28T10:02:01;3.50;91.20
40434;DHT22;26146;51.114;5.654;2023-02-28T10:06:18;3.60;91.20
40434;DHT22;26146;51.114;5.654;2023-02-28T10:10:37;3.80;91.30
40434;DHT22;26146;51.114;5.654;2023-02-28T10:14:45;3.90;90.60
40434;DHT22;26146;51.114;5.654;2023-02-28T10:18:59;4.10;89.20
40434;DHT22;26146;51.114;5.654;2023-02-28T10:23:19;4.00;87.90
40434;DHT22;26146;51.114;5.654;2023-02-28T10:27:23;4.10;89.10
40434;DHT22;26146;51.114;5.654;2023-02-28T10:31:25;4.10;86.80
40434;DHT22;26146;51.114;5.654;2023-02-28T10:35:26;4.30;86.00
40434;DHT22;26146;51.114;5.654;2023-02-28T10:43:42;4.20;85.00
40434;DHT22;26146;51.114;5.654;2023-02-28T10:52:00;4.40;85.80
40434;DHT22;26146;51.114;5.654;2023-02-28T11:00:21;4.40;84.10
40434;DHT22;26146;51.114;5.654;2023-02-28T11:08:23;4.50;85.00
40434;DHT22;26146;51.114;5.654;2023-02-28T11:12:38;4.50;84.00
40434;DHT22;26146;51.114;5.654;2023-02-28T11:16:41;4.70;84.30
40434;DHT22;26146;51.114;5.654;2023-02-28T11:20:48;4.60;84.10
40434;DHT22;26146;51.114;5.654;2023-02-28T11:24:56;4.50;83.80
40434;DHT22;26146;51.114;5.654;2023-02-28T11:29:22;4.50;83.40
40434;DHT22;26146;51.114;5.654;2023-02-28T11:33:29;4.60;84.70
40434;DHT22;26146;51.114;5.654;2023-02-28T11:37:32;4.80;84.50
40434;DHT22;26146;51.114;5.654;2023-02-28T11:46:40;4.80;82.60
40434;DHT22;26146;51.114;5.654;2023-02-28T11:51:02;4.70;84.10
40434;DHT22;26146;51.114;5.654;2023-02-28T11:55:59;4.90;82.50
40434;DHT22;26146;51.114;5.654;2023-02-28T12:00:01;5.10;82.80
40434;DHT22;26146;51.114;5.654;2023-02-28T12:12:44;4.60;85.30
40434;DHT22;26146;51.114;5.654;2023-02-28T12:33:41;5.30;85.30
40434;DHT22;26146;51.114;5.654;2023-02-28T12:38:10;5.40;84.00
40434;DHT22;26146;51.114;5.654;2023-02-28T12:42:24;5.50;84.30
40434;DHT22;26146;51.114;5.654;2023-02-28T12:46:37;5.80;82.10
40434;DHT22;26146;51.114;5.654;2023-02-28T12:50:41;5.80;81.90
40434;DHT22;26146;51.114;5.654;2023-02-28T12:54:52;5.50;83.30
40434;DHT22;26146;51.114;5.654;2023-02-28T12:59:03;5.60;83.40
40434;DHT22;26146;51.114;5.654;2023-02-28T13:07:36;5.40;84.40
40434;DHT22;26146;51.114;5.654;2023-02-28T13:19:58;5.60;84.00
40434;DHT22;26146;51.114;5.654;2023-02-28T13:24:04;5.60;84.20
40434;DHT22;26146;51.114;5.654;2023-02-28T13:28:12;5.60;84.20
40434;DHT22;26146;51.114;5.654;2023-02-28T13:32:19;5.50;84.40
40434;DHT22;26146;51.114;5.654;2023-02-28T13:36:27;5.60;85.20
40434;DHT22;26146;51.114;5.654;2023-02-28T13:40:32;5.50;83.60
40434;DHT22;26146;51.114;5.654;2023-02-28T13:53:32;5.90;85.10
40434;DHT22;26146;51.114;5.654;2023-02-28T14:02:00;5.80;83.00
40434;DHT22;26146;51.114;5.654;2023-02-28T14:06:35;5.80;83.20
40434;DHT22;26146;51.114;5.654;2023-02-28T14:10:44;5.90;82.30
40434;DHT22;26146;51.114;5.654;2023-02-28T14:19:11;5.70;82.60
40434;DHT22;26146;51.114;5.654;2023-02-28T14:31:54;5.80;81.90
40434;DHT22;26146;51.114;5.654;2023-02-28T14:40:15;5.80;82.30
40434;DHT22;26146;51.114;5.654;2023-02-28T14:48:21;5.60;83.50
40434;DHT22;26146;51.114;5.654;2023-02-28T14:52:27;6.00;83.00
40434;DHT22;26146;51.114;5.654;2023-02-28T14:56:37;6.10;81.80
40434;DHT22;26146;51.114;5.654;2023-02-28T15:00:48;5.90;82.40
40434;DHT22;26146;51.114;5.654;2023-02-28T15:04:57;5.90;83.10
40434;DHT22;26146;51.114;5.654;2023-02-28T15:09:13;6.00;83.40
40434;DHT22;26146;51.114;5.654;2023-02-28T15:13:15;6.00;81.50
40434;DHT22;26146;51.114;5.654;2023-02-28T15:17:22;6.00;83.70
40434;DHT22;26146;51.114;5.654;2023-02-28T15:21:27;6.00;82.00
40434;DHT22;26146;51.114;5.654;2023-02-28T15:25:28;6.20;82.80
40434;DHT22;26146;51.114;5.654;2023-02-28T15:29:34;6.00;82.00
40434;DHT22;26146;51.114;5.654;2023-02-28T15:33:58;5.80;83.80
40434;DHT22;26146;51.114;5.654;2023-02-28T15:38:21;5.90;83.00
40434;DHT22;26146;51.114;5.654;2023-02-28T15:42:28;5.90;83.10
40434;DHT22;26146;51.114;5.654;2023-02-28T15:46:32;5.80;83.40
40434;DHT22;26146;51.114;5.654;2023-02-28T15:50:33;5.70;83.50
40434;DHT22;26146;51.114;5.654;2023-02-28T15:54:37;5.70;83.70
40434;DHT22;26146;51.114;5.654;2023-02-28T15:58:38;6.00;84.20
40434;DHT22;26146;51.114;5.654;2023-02-28T16:02:40;5.90;84.00
40434;DHT22;26146;51.114;5.654;2023-02-28T16:07:01;5.80;84.90
40434;DHT22;26146;51.114;5.654;2023-02-28T16:11:03;5.80;84.40
40434;DHT22;26146;51.114;5.654;2023-02-28T16:15:28;5.80;85.10
40434;DHT22;26146;51.114;5.654;2023-02-28T16:19:29;5.70;84.70
40434;DHT22;26146;51.114;5.654;2023-02-28T16:23:31;5.80;85.50
40434;DHT22;26146;51.114;5.654;2023-02-28T16:27:36;5.80;84.80
40434;DHT22;26146;51.114;5.654;2023-02-28T16:31:37;5.60;84.80
40434;DHT22;26146;51.114;5.654;2023-02-28T16:35:38;5.50;85.80
40434;DHT22;26146;51.114;5.654;2023-02-28T16:39:40;5.60;86.10
40434;DHT22;26146;51.114;5.654;2023-02-28T16:43:41;5.50;85.90
40434;DHT22;26146;51.114;5.654;2023-02-28T16:47:44;5.60;86.00
40434;DHT22;26146;51.114;5.654;2023-02-28T16:51:44;5.50;86.50
40434;DHT22;26146;51.114;5.654;2023-02-28T16:55:46;5.30;87.30
40434;DHT22;26146;51.114;5.654;2023-02-28T16:59:49;5.20;88.20
40434;DHT22;26146;51.114;5.654;2023-02-28T17:03:51;5.20;88.60
40434;DHT22;26146;51.114;5.654;2023-02-28T17:07:52;5.10;89.50
40434;DHT22;26146;51.114;5.654;2023-02-28T17:11:53;4.90;90.30
40434;DHT22;26146;51.114;5.654;2023-02-28T17:15:54;5.00;90.40
40434;DHT22;26146;51.114;5.654;2023-02-28T17:19:55;5.00;90.60
40434;DHT22;26146;51.114;5.654;2023-02-28T17:23:56;5.00;90.70
40434;DHT22;26146;51.114;5.654;2023-02-28T17:27:57;4.80;91.30
40434;DHT22;26146;51.114;5.654;2023-02-28T17:31:58;4.90;91.50
40434;DHT22;26146;51.114;5.654;2023-02-28T17:36:01;4.90;91.60
40434;DHT22;26146;51.114;5.654;2023-02-28T17:40:03;4.70;92.10
40434;DHT22;26146;51.114;5.654;2023-02-28T17:44:04;4.60;92.30
40434;DHT22;26146;51.114;5.654;2023-02-28T17:48:05;4.50;92.70
40434;DHT22;26146;51.114;5.654;2023-02-28T17:52:07;4.40;93.10
40434;DHT22;26146;51.114;5.654;2023-02-28T17:56:15;4.40;93.40
40434;DHT22;26146;51.114;5.654;2023-02-28T18:00:17;4.20;93.80
40434;DHT22;26146;51.114;5.654;2023-02-28T18:04:18;4.30;94.20
40434;DHT22;26146;51.114;5.654;2023-02-28T18:08:19;4.40;94.20
40434;DHT22;26146;51.114;5.654;2023-02-28T18:12:20;4.40;94.60
40434;DHT22;26146;51.114;5.654;2023-02-28T18:16:21;4.30;94.60
40434;DHT22;26146;51.114;5.654;2023-02-28T18:20:22;4.20;94.90
40434;DHT22;26146;51.114;5.654;2023-02-28T18:24:26;3.90;95.50
40434;DHT22;26146;51.114;5.654;2023-02-28T18:28:27;3.90;95.70
40434;DHT22;26146;51.114;5.654;2023-02-28T18:32:28;3.90;95.90
40434;DHT22;26146;51.114;5.654;2023-02-28T18:36:29;3.70;96.20
40434;DHT22;26146;51.114;5.654;2023-02-28T18:40:31;3.50;96.80
40434;DHT22;26146;51.114;5.654;2023-02-28T18:44:32;3.60;96.90
40434;DHT22;26146;51.114;5.654;2023-02-28T18:48:33;3.60;96.80
40434;DHT22;26146;51.114;5.654;2023-02-28T18:52:34;3.60;97.10
40434;DHT22;26146;51.114;5.654;2023-02-28T18:56:36;3.40;97.50
40434;DHT22;26146;51.114;5.654;2023-02-28T19:00:37;3.50;97.60
40434;DHT22;26146;51.114;5.654;2023-02-28T19:04:41;3.70;97.10
40434;DHT22;26146;51.114;5.654;2023-02-28T19:08:42;3.50;97.20
40434;DHT22;26146;51.114;5.654;2023-02-28T19:12:43;3.60;97.10
40434;DHT22;26146;51.114;5.654;2023-02-28T19:16:44;3.40;97.50
40434;DHT22;26146;51.114;5.654;2023-02-28T19:20:49;3.30;97.90
40434;DHT22;26146;51.114;5.654;2023-02-28T19:24:50;3.40;97.70
40434;DHT22;26146;51.114;5.654;2023-02-28T19:28:52;3.10;98.10
40434;DHT22;26146;51.114;5.654;2023-02-28T19:32:53;3.20;98.10
40434;DHT22;26146;51.114;5.654;2023-02-28T19:36:54;3.20;98.20
40434;DHT22;26146;51.114;5.654;2023-02-28T19:41:09;3.10;98.60
40434;DHT22;26146;51.114;5.654;2023-02-28T19:45:10;3.20;98.10
40434;DHT22;26146;51.114;5.654;2023-02-28T19:49:14;3.10;98.60
40434;DHT22;26146;51.114;5.654;2023-02-28T19:53:15;2.90;98.90
40434;DHT22;26146;51.114;5.654;2023-02-28T19:57:16;3.00;99.00
40434;DHT22;26146;51.114;5.654;2023-02-28T20:01:18;3.00;98.90
40434;DHT22;26146;51.114;5.654;2023-02-28T20:05:20;3.00;99.00
40434;DHT22;26146;51.114;5.654;2023-02-28T20:09:20;2.90;99.10
40434;DHT22;26146;51.114;5.654;2023-02-28T20:13:21;2.80;99.40
40434;DHT22;26146;51.114;5.654;2023-02-28T20:17:24;2.70;99.70
40434;DHT22;26146;51.114;5.654;2023-02-28T20:21:25;2.70;99.90
40434;DHT22;26146;51.114;5.654;2023-02-28T20:25:26;2.70;99.90
40434;DHT22;26146;51.114;5.654;2023-02-28T20:29:27;2.60;99.90
40434;DHT22;26146;51.114;5.654;2023-02-28T20:33:29;2.50;99.90
40434;DHT22;26146;51.114;5.654;2023-02-28T20:37:30;2.40;99.90
40434;DHT22;26146;51.114;5.654;2023-02-28T20:41:33;2.40;99.90
40434;DHT22;26146;51.114;5.654;2023-02-28T20:45:34;2.30;99.90
40434;DHT22;26146;51.114;5.654;2023-02-28T20:49:35;2.30;99.90
40434;DHT22;26146;51.114;5.654;2023-02-28T20:53:36;2.20;99.90
40434;DHT22;26146;51.114;5.654;2023-02-28T20:57:38;2.20;99.90
40434;DHT22;26146;51.114;5.654;2023-02-28T21:01:39;2.20;99.90
40434;DHT22;26146;51.114;5.654;2023-02-28T21:05:42;2.20;99.90
40434;DHT22;26146;51.114;5.654;2023-02-28T21:09:43;2.00;99.90
40434;DHT22;26146;51.114;5.654;2023-02-28T21:13:45;2.10;99.90
40434;DHT22;26146;51.114;5.654;2023-02-28T21:17:47;2.00;99.90
40434;DHT22;26146;51.114;5.654;2023-02-28T21:21:48;1.90;99.90
40434;DHT22;26146;51.114;5.654;2023-02-28T21:25:49;1.70;99.90
40434;DHT22;26146;51.114;5.654;2023-02-28T21:29:50;1.80;99.90
40434;DHT22;26146;51.114;5.654;2023-02-28T21:33:53;1.70;99.90
40434;DHT22;26146;51.114;5.654;2023-02-28T21:37:54;1.60;99.90
40434;DHT22;26146;51.114;5.654;2023-02-28T21:41:55;1.50;99.90
40434;DHT22;26146;51.114;5.654;2023-02-28T21:46:07;1.40;99.90
40434;DHT22;26146;51.114;5.654;2023-02-28T21:50:09;1.40;99.90
40434;DHT22;26146;51.114;5.654;2023-02-28T21:54:10;1.40;99.90
40434;DHT22;26146;51.114;5.654;2023-02-28T21:58:11;1.50;99.90
40434;DHT22;26146;51.114;5.654;2023-02-28T22:02:13;1.30;99.90
40434;DHT22;26146;51.114;5.654;2023-02-28T22:06:17;1.30;99.90
40434;DHT22;26146;51.114;5.654;2023-02-28T22:10:18;1.30;99.90
40434;DHT22;26146;51.114;5.654;2023-02-28T22:14:24;1.40;99.90
40434;DHT22;26146;51.114;5.654;2023-02-28T22:18:25;1.40;99.90
40434;DHT22;26146;51.114;5.654;2023-02-28T22:22:26;1.50;99.90
40434;DHT22;26146;51.114;5.654;2023-02-28T22:26:27;1.50;99.90
40434;DHT22;26146;51.114;5.654;2023-02-28T22:30:28;1.50;99.90
40434;DHT22;26146;51.114;5.654;2023-02-28T22:34:29;1.40;99.90
40434;DHT22;26146;51.114;5.654;2023-02-28T22:38:30;1.50;99.90
40434;DHT22;26146;51.114;5.654;2023-02-28T22:42:35;1.60;99.90
40434;DHT22;26146;51.114;5.654;2023-02-28T22:46:35;1.50;99.90
40434;DHT22;26146;51.114;5.654;2023-02-28T22:50:36;1.30;99.90
40434;DHT22;26146;51.114;5.654;2023-02-28T22:54:40;1.40;99.90
40434;DHT22;26146;51.114;5.654;2023-02-28T22:58:47;1.40;99.90
40434;DHT22;26146;51.114;5.654;2023-02-28T23:02:48;1.40;99.90
40434;DHT22;26146;51.114;5.654;2023-02-28T23:06:49;1.40;99.90
40434;DHT22;26146;51.114;5.654;2023-02-28T23:10:50;1.30;99.90
40434;DHT22;26146;51.114;5.654;2023-02-28T23:14:52;1.40;99.90
40434;DHT22;26146;51.114;5.654;2023-02-28T23:18:53;1.30;99.90
40434;DHT22;26146;51.114;5.654;2023-02-28T23:22:55;1.20;99.90
40434;DHT22;26146;51.114;5.654;2023-02-28T23:26:57;0.90;99.90
40434;DHT22;26146;51.114;5.654;2023-02-28T23:31:01;0.80;99.90
40434;DHT22;26146;51.114;5.654;2023-02-28T23:35:04;0.70;99.90
40434;DHT22;26146;51.114;5.654;2023-02-28T23:39:07;0.60;99.90
40434;DHT22;26146;51.114;5.654;2023-02-28T23:43:09;0.50;99.90
40434;DHT22;26146;51.114;5.654;2023-02-28T23:47:10;0.60;99.90
40434;DHT22;26146;51.114;5.654;2023-02-28T23:51:15;0.60;99.90
40434;DHT22;26146;51.114;5.654;2023-02-28T23:55:20;0.60;99.90
40434;DHT22;26146;51.114;5.654;2023-02-28T23:59:24;0.50;99.90
